createdAt,value
2019-02-10T12:52:33.771Z,28.80
2019-02-10T12:55:01.727Z,29.30
2019-02-10T12:57:29.607Z,30.00
2019-02-10T12:59:57.516Z,29.70
2019-02-10T13:02:25.365Z,31.00
2019-02-10T13:04:53.639Z,33.00
2019-02-10T13:07:21.899Z,35.70
2019-02-10T13:09:49.753Z,37.20
2019-02-10T13:12:17.673Z,39.20
2019-02-10T13:14:45.600Z,40.10
2019-02-10T13:17:13.544Z,41.10
2019-02-10T13:19:41.446Z,42.80
2019-02-10T13:22:09.403Z,43.70
2019-02-10T13:24:37.329Z,45.10
2019-02-10T13:27:05.429Z,46.30
2019-02-10T13:29:33.311Z,46.60
2019-02-10T13:32:01.248Z,47.80
2019-02-10T13:34:29.312Z,48.20
2019-02-10T13:36:57.175Z,49.30
2019-02-10T13:39:25.305Z,51.30
2019-02-10T13:41:51.620Z,51.80
2019-02-10T13:44:19.609Z,53.10
2019-02-10T13:46:47.557Z,53.70
2019-02-10T13:49:15.476Z,53.80
2019-02-10T13:51:43.427Z,53.80
2019-02-10T13:54:11.394Z,53.80
2019-02-10T13:56:39.355Z,54.90
2019-02-10T13:59:07.404Z,55.40
2019-02-10T14:01:35.369Z,56.10
2019-02-10T14:04:03.666Z,56.50
2019-02-10T14:06:31.674Z,57.20
2019-02-10T14:08:59.609Z,58.10
2019-02-10T14:11:27.569Z,58.00
2019-02-10T14:13:55.480Z,57.90
2019-02-10T14:16:23.346Z,57.40
2019-02-10T14:18:51.263Z,57.40
2019-02-10T14:21:19.219Z,58.30
2019-02-10T14:23:47.244Z,57.80
2019-02-10T14:26:15.232Z,57.50
2019-02-10T14:28:43.237Z,57.80
2019-02-10T14:31:11.149Z,57.80
2019-02-10T14:33:39.267Z,58.00
2019-02-10T14:36:07.152Z,57.30
2019-02-10T14:38:36.173Z,57.50
2019-02-10T14:41:04.576Z,57.60
2019-02-10T14:43:32.554Z,57.60
2019-02-10T14:46:03.151Z,58.00
2019-02-10T14:48:31.162Z,58.30
2019-02-10T14:50:59.120Z,58.90
2019-02-10T14:53:27.109Z,58.70
2019-02-10T14:55:55.029Z,58.00
2019-02-10T14:58:22.926Z,58.70
2019-02-10T15:00:50.883Z,58.50
2019-02-10T15:03:18.838Z,57.70
2019-02-10T15:05:47.072Z,57.70
2019-02-10T15:08:15.028Z,57.10
2019-02-10T15:10:42.990Z,57.80
2019-02-10T15:13:11.295Z,57.70
2019-02-10T15:15:39.206Z,58.10
2019-02-10T15:18:07.164Z,57.70
2019-02-10T15:20:35.255Z,57.60
2019-02-10T15:23:03.247Z,56.70
2019-02-10T15:25:31.134Z,56.90
2019-02-10T15:27:59.146Z,56.90
2019-02-10T15:30:27.225Z,56.60
2019-02-10T15:32:55.193Z,56.90
2019-02-10T15:35:23.707Z,58.30
2019-02-10T15:37:51.771Z,59.30
2019-02-10T15:40:19.730Z,60.70
2019-02-10T15:42:47.719Z,61.70
2019-02-10T15:45:15.708Z,62.30
2019-02-10T15:47:43.715Z,63.10
2019-02-10T15:50:11.704Z,63.40
2019-02-10T15:52:39.765Z,64.60
2019-02-10T15:55:09.049Z,65.30
2019-02-10T15:57:36.985Z,66.50
2019-02-10T16:00:09.078Z,67.20
2019-02-10T16:02:37.144Z,66.80
2019-02-10T16:05:05.332Z,63.50
2019-02-10T16:07:33.212Z,64.60
2019-02-10T16:10:01.080Z,64.10
2019-02-10T16:12:29.081Z,63.50
2019-02-10T16:14:56.958Z,62.20
2019-02-10T16:17:24.921Z,63.10
2019-02-10T16:19:52.831Z,62.70
2019-02-10T16:22:21.527Z,62.60
2019-02-10T16:24:49.521Z,62.70
2019-02-10T16:27:17.475Z,62.20
2019-02-10T16:29:45.409Z,63.60
2019-02-10T16:32:13.331Z,63.80
2019-02-10T16:34:41.215Z,62.90
2019-02-10T16:37:09.174Z,62.00
2019-02-10T16:39:37.105Z,61.70
2019-02-10T16:42:27.426Z,62.00
2019-02-10T16:44:55.785Z,61.50
2019-02-10T16:47:23.757Z,62.10
2019-02-10T16:49:51.726Z,62.20
2019-02-10T16:52:19.732Z,61.40
2019-02-10T16:54:47.644Z,61.40
2019-02-10T16:57:15.577Z,61.30
2019-02-10T16:59:46.186Z,61.80
2019-02-10T17:02:14.048Z,61.30
2019-02-10T17:04:41.936Z,61.80
2019-02-10T17:07:09.847Z,62.80
2019-02-10T17:09:37.702Z,61.20
2019-02-10T17:12:05.670Z,61.20
2019-02-10T17:14:33.529Z,61.20
2019-02-10T17:17:01.509Z,60.60
2019-02-10T17:19:29.390Z,58.70
2019-02-10T17:21:57.315Z,60.80
2019-02-10T17:24:25.390Z,59.50
2019-02-10T17:26:53.360Z,60.40
2019-02-10T17:29:21.254Z,61.80
2019-02-10T17:31:49.187Z,62.50
2019-02-10T17:34:17.093Z,63.30
2019-02-10T17:36:45.324Z,62.90
2019-02-10T17:39:17.516Z,61.60
2019-02-10T17:41:47.635Z,61.30
2019-02-10T17:44:15.623Z,60.80
2019-02-10T17:46:43.597Z,61.70
2019-02-10T17:49:11.795Z,61.60
2019-02-10T17:51:39.842Z,61.10
2019-02-10T17:54:07.717Z,61.10
2019-02-10T17:56:35.678Z,61.00
2019-02-10T17:59:03.707Z,62.50
2019-02-10T18:01:31.658Z,62.10
2019-02-10T18:03:59.561Z,61.20
2019-02-10T18:06:27.551Z,60.40
2019-02-10T18:08:55.493Z,58.60
2019-02-10T18:11:30.712Z,58.60
2019-02-10T18:13:53.332Z,58.90
2019-02-10T18:16:33.630Z,59.70
2019-02-10T18:19:14.862Z,58.50
2019-02-10T18:22:01.247Z,59.80
2019-02-10T18:24:47.682Z,59.10
2019-02-10T18:27:25.802Z,59.80
2019-02-10T18:30:13.558Z,57.30
2019-02-10T18:33:01.270Z,57.00
2019-02-10T18:35:40.052Z,57.20
2019-02-10T18:38:19.516Z,56.10
2019-02-10T18:41:06.596Z,57.20
2019-02-10T18:43:53.316Z,57.70
2019-02-10T18:46:31.037Z,55.30
2019-02-10T18:49:10.322Z,55.50
2019-02-10T18:51:57.830Z,56.20
2019-02-10T18:54:36.862Z,55.90
2019-02-10T18:57:27.401Z,55.70
2019-02-10T19:00:17.785Z,55.30
2019-02-10T19:03:05.286Z,55.70
2019-02-10T19:05:48.204Z,54.20
2019-02-10T19:08:34.647Z,54.10
2019-02-10T19:11:20.701Z,54.40
2019-02-10T19:14:04.220Z,54.00
2019-02-10T19:16:44.465Z,54.40
2019-02-10T19:19:35.011Z,55.90
2019-02-10T19:22:21.386Z,56.10
2019-02-10T19:25:11.525Z,55.60
2019-02-10T19:27:49.156Z,55.80
2019-02-10T19:30:43.073Z,55.90
2019-02-10T19:33:29.544Z,56.50
2019-02-10T19:36:15.909Z,56.60
2019-02-10T19:39:02.284Z,56.30
2019-02-10T19:41:55.491Z,56.30
2019-02-10T19:44:48.175Z,56.10
2019-02-10T19:47:44.797Z,56.80
2019-02-10T19:50:37.374Z,56.40
2019-02-10T19:53:22.208Z,56.40
2019-02-10T19:56:11.826Z,56.60
2019-02-10T19:58:47.919Z,56.00
2019-02-10T20:01:41.447Z,55.70
2019-02-10T20:04:44.109Z,55.00
2019-02-10T20:07:19.756Z,55.40
2019-02-10T20:10:25.451Z,55.50
2019-02-10T20:13:05.769Z,56.10
2019-02-10T20:15:55.086Z,57.40
2019-02-10T20:18:48.636Z,57.80
2019-02-10T20:21:27.121Z,57.40
2019-02-10T20:24:13.771Z,58.00
2019-02-10T20:27:16.475Z,58.10
2019-02-10T20:29:52.687Z,58.80
2019-02-10T20:32:31.086Z,58.80
2019-02-10T20:35:18.628Z,59.20
2019-02-10T20:38:08.364Z,59.70
2019-02-10T20:40:51.200Z,59.70
2019-02-10T20:43:33.221Z,59.60
2019-02-10T20:46:20.730Z,59.90
2019-02-10T20:49:07.207Z,59.90
2019-02-10T20:51:54.798Z,60.10
2019-02-10T20:54:38.223Z,60.90
2019-02-10T20:57:34.662Z,61.20
2019-02-10T21:00:25.555Z,61.00
2019-02-10T21:03:25.327Z,59.50
2019-02-10T21:06:11.505Z,59.60
2019-02-10T21:08:44.655Z,59.60
2019-02-10T21:11:30.761Z,59.30
2019-02-10T21:14:17.211Z,59.20
2019-02-10T21:17:04.957Z,59.70
2019-02-10T21:19:46.217Z,59.20
2019-02-10T21:22:25.146Z,59.10
2019-02-10T21:25:18.906Z,59.60
2019-02-10T21:28:12.429Z,59.70
2019-02-10T21:31:11.159Z,60.10
2019-02-10T21:34:01.537Z,60.40
2019-02-10T21:36:51.955Z,61.20
2019-02-10T21:39:42.538Z,62.10
2019-02-10T21:42:28.789Z,62.10
2019-02-10T21:45:12.209Z,61.20
2019-02-10T21:47:43.947Z,59.50
2019-02-10T21:50:11.920Z,59.60
2019-02-10T21:52:40.075Z,59.50
2019-02-10T21:55:08.230Z,57.60
2019-02-10T21:57:36.144Z,58.00
2019-02-10T22:00:06.024Z,57.40
2019-02-10T22:02:34.003Z,57.10
2019-02-10T22:05:01.926Z,57.50
2019-02-10T22:07:29.843Z,56.60
2019-02-10T22:09:57.748Z,56.10
2019-02-10T22:12:25.718Z,55.20
2019-02-10T22:14:53.583Z,55.20
2019-02-10T22:17:21.431Z,55.90
2019-02-10T22:19:49.714Z,55.10
2019-02-10T22:22:17.742Z,55.10
2019-02-10T22:24:45.603Z,54.60
2019-02-10T22:27:13.535Z,55.10
2019-02-10T22:29:41.474Z,54.50
2019-02-10T22:32:09.640Z,55.10
2019-02-10T22:34:37.604Z,55.10
2019-02-10T22:37:05.477Z,55.10
2019-02-10T22:39:33.386Z,54.80
2019-02-10T22:42:01.231Z,53.90
2019-02-10T22:44:29.120Z,53.80
2019-02-10T22:46:57.024Z,53.50
2019-02-10T22:49:24.904Z,53.20
2019-02-10T22:51:52.775Z,52.50
2019-02-10T22:54:20.667Z,52.70
2019-02-10T22:56:48.641Z,53.30
2019-02-10T22:59:16.503Z,52.70
2019-02-10T23:01:44.563Z,52.50
2019-02-10T23:04:12.446Z,53.00
2019-02-10T23:06:40.380Z,52.30
2019-02-10T23:09:13.160Z,52.50
2019-02-10T23:11:41.084Z,52.10
2019-02-10T23:14:08.926Z,52.50
2019-02-10T23:16:36.830Z,51.90
2019-02-10T23:19:04.696Z,52.50
2019-02-10T23:21:32.538Z,52.60
2019-02-10T23:24:00.713Z,52.90
2019-02-10T23:26:28.570Z,53.30
2019-02-10T23:28:56.454Z,53.30
2019-02-10T23:31:24.305Z,53.80
2019-02-10T23:33:52.186Z,53.80
2019-02-10T23:36:20.054Z,54.20
2019-02-10T23:38:47.921Z,53.30
2019-02-10T23:41:15.747Z,53.90
2019-02-10T23:43:43.615Z,54.00
2019-02-10T23:46:11.477Z,54.60
2019-02-10T23:48:39.409Z,54.80
2019-02-10T23:51:07.276Z,55.30
2019-02-10T23:53:35.132Z,55.70
2019-02-10T23:56:03.247Z,56.40
2019-02-10T23:58:31.090Z,56.50
